Time;durP1;ratioP1;P1;durP2;ratioP2;P2;SDS_P1;SDS_P2;PMS_P1;PMS_P2;Temp;Humidity;BMP_temperature;BMP_pressure;BME280_temperature;BME280_humidity;BME280_pressure;Samples;Min_cycle;Max_cycle;Signal;HPM_P1;HPM_P2
2023/02/04 00:00:04;;;;;;;4.97;2.00;;;15.90;62.80;;;;;;5034762;28;20492;-75
2023/02/04 00:02:31;;;;;;;5.00;1.73;;;15.90;62.80;;;;;;5034765;28;20057;-75
2023/02/04 00:04:58;;;;;;;8.38;1.70;;;15.90;62.80;;;;;;5035069;28;20049;-75
2023/02/04 00:07:24;;;;;;;4.05;1.88;;;15.90;62.80;;;;;;5034204;28;20029;-75
2023/02/04 00:09:49;;;;;;;4.97;2.00;;;15.90;62.70;;;;;;5034635;28;20400;-75
2023/02/04 00:12:16;;;;;;;4.75;1.80;;;15.90;62.80;;;;;;5033764;28;20033;-74
2023/02/04 00:14:41;;;;;;;5.07;2.10;;;15.90;62.80;;;;;;5034589;28;20029;-75
2023/02/04 00:17:09;;;;;;;5.43;1.70;;;15.90;62.70;;;;;;5034734;28;20033;-75
2023/02/04 00:19:34;;;;;;;4.95;2.08;;;15.90;62.70;;;;;;5034445;28;20021;-75
2023/02/04 00:22:02;;;;;;;6.05;1.95;;;15.90;62.70;;;;;;5034517;28;20036;-75
2023/02/04 00:24:29;;;;;;;4.30;1.67;;;15.90;62.60;;;;;;5034621;28;20017;-75
2023/02/04 00:26:56;;;;;;;4.90;1.45;;;15.90;62.70;;;;;;5034302;28;20104;-75
2023/02/04 00:29:22;;;;;;;4.63;1.65;;;15.90;62.70;;;;;;5034469;28;20037;-75
2023/02/04 00:31:48;;;;;;;5.57;1.27;;;15.90;62.70;;;;;;5033474;28;20163;-75
2023/02/04 00:34:14;;;;;;;4.72;1.77;;;15.90;62.70;;;;;;5034269;28;20057;-75
2023/02/04 00:36:40;;;;;;;4.65;1.88;;;15.90;62.70;;;;;;5034390;28;20108;-75
2023/02/04 00:39:06;;;;;;;3.67;1.52;;;15.90;62.70;;;;;;5034121;28;20108;-74
2023/02/04 00:41:32;;;;;;;2.38;1.52;;;15.90;62.70;;;;;;5034324;28;20442;-74
2023/02/04 00:43:58;;;;;;;3.47;1.80;;;15.90;62.60;;;;;;5034031;28;20102;-74
2023/02/04 00:46:24;;;;;;;6.75;1.85;;;15.90;62.60;;;;;;5034099;28;20033;-74
2023/02/04 00:48:50;;;;;;;7.20;1.92;;;15.90;63.40;;;;;;5033916;28;20029;-74
2023/02/04 00:51:16;;;;;;;5.40;1.85;;;15.90;62.70;;;;;;5034088;28;20040;-75
2023/02/04 00:53:42;;;;;;;3.90;1.70;;;15.90;63.40;;;;;;5033721;28;20392;-74
2023/02/04 00:56:07;;;;;;;4.07;1.50;;;15.90;62.70;;;;;;5033742;28;20036;-74
2023/02/04 00:58:33;;;;;;;4.72;1.70;;;15.90;62.70;;;;;;5033942;28;20104;-75
2023/02/04 01:00:58;;;;;;;7.35;1.83;;;15.90;62.80;;;;;;5033824;28;20057;-75
2023/02/04 01:03:24;;;;;;;3.95;1.77;;;15.90;62.70;;;;;;5033539;28;20046;-75
2023/02/04 01:05:49;;;;;;;3.38;1.65;;;15.90;62.70;;;;;;5033724;28;20404;-75
2023/02/04 01:08:15;;;;;;;5.80;1.63;;;15.90;62.70;;;;;;5015924;28;20159;-75
2023/02/04 01:10:41;;;;;;;4.03;1.52;;;16.00;62.90;;;;;;5033525;28;20029;-75
2023/02/04 01:13:07;;;;;;;2.85;1.48;;;15.90;62.80;;;;;;5033581;28;20076;-75
2023/02/04 01:15:33;;;;;;;3.53;1.50;;;15.90;62.80;;;;;;5033563;28;20025;-75
2023/02/04 01:17:59;;;;;;;2.47;1.33;;;15.90;62.80;;;;;;5033485;28;20021;-75
2023/02/04 01:20:25;;;;;;;2.42;1.30;;;16.00;62.80;;;;;;5033430;28;20040;-75
2023/02/04 01:22:50;;;;;;;3.20;1.38;;;15.90;62.80;;;;;;5033286;28;20024;-75
2023/02/04 01:25:16;;;;;;;2.78;1.50;;;15.90;62.80;;;;;;5033331;28;20030;-75
2023/02/04 01:27:43;;;;;;;4.40;1.60;;;15.90;62.80;;;;;;5033175;28;20447;-75
2023/02/04 01:30:11;;;;;;;3.42;1.45;;;15.90;62.80;;;;;;5033153;28;20063;-75
2023/02/04 01:32:36;;;;;;;2.90;1.17;;;15.90;62.80;;;;;;5033081;28;20029;-75
2023/02/04 01:35:03;;;;;;;4.50;1.48;;;15.90;62.80;;;;;;5033202;28;20551;-75
2023/02/04 01:37:28;;;;;;;3.05;1.10;;;15.90;62.80;;;;;;5033152;28;20392;-75
2023/02/04 01:39:54;;;;;;;3.42;1.67;;;15.90;62.80;;;;;;5032985;28;20024;-75
2023/02/04 01:42:19;;;;;;;4.40;1.30;;;16.00;62.90;;;;;;5032769;28;20036;-75
2023/02/04 01:44:45;;;;;;;4.57;1.42;;;15.90;62.80;;;;;;5032979;28;20025;-75
2023/02/04 01:47:11;;;;;;;2.42;1.00;;;15.90;62.80;;;;;;5032902;28;20147;-75
2023/02/04 01:49:37;;;;;;;5.03;2.13;;;16.00;62.80;;;;;;5032806;28;20068;-75
2023/02/04 01:52:04;;;;;;;3.78;1.30;;;15.90;62.80;;;;;;5033111;28;20102;-74
2023/02/04 01:54:31;;;;;;;3.85;1.65;;;16.00;63.50;;;;;;5033120;28;20052;-74
2023/02/04 01:56:57;;;;;;;3.42;1.50;;;15.90;62.80;;;;;;5032875;28;20071;-74
2023/02/04 01:59:23;;;;;;;3.42;1.05;;;15.90;62.80;;;;;;5032621;28;20029;-74
2023/02/04 02:01:52;;;;;;;3.83;1.65;;;15.90;62.80;;;;;;5032372;28;20104;-75
2023/02/04 02:04:30;;;;;;;3.75;1.65;;;15.90;62.80;;;;;;5032433;28;20045;-75
2023/02/04 02:07:03;;;;;;;4.53;1.75;;;15.90;62.80;;;;;;5032684;28;20040;-74
2023/02/04 02:09:30;;;;;;;3.72;1.65;;;15.90;62.80;;;;;;5032439;28;20116;-74
2023/02/04 02:11:57;;;;;;;3.45;1.50;;;15.90;62.80;;;;;;5032673;28;20155;-76
2023/02/04 02:14:23;;;;;;;3.13;1.35;;;15.90;63.40;;;;;;5032443;28;20049;-74
2023/02/04 02:16:49;;;;;;;4.47;1.63;;;15.90;62.80;;;;;;5032628;28;20026;-75
2023/02/04 02:19:25;;;;;;;3.33;1.40;;;15.90;62.80;;;;;;5032510;28;20033;-74
2023/02/04 02:22:02;;;;;;;4.80;1.70;;;15.90;62.80;;;;;;5032545;28;20017;-75
2023/02/04 02:24:33;;;;;;;2.58;1.40;;;15.90;62.80;;;;;;5032647;28;20037;-74
2023/02/04 02:27:07;;;;;;;3.65;1.45;;;15.70;62.70;;;;;;5032476;28;20025;-74
2023/02/04 02:29:33;;;;;;;2.10;1.10;;;15.90;62.80;;;;;;5032353;28;20499;-74
2023/02/04 02:31:59;;;;;;;4.63;1.80;;;15.90;62.90;;;;;;5032573;28;20026;-74
2023/02/04 02:34:27;;;;;;;2.63;1.33;;;15.90;62.80;;;;;;5032263;28;20033;-74
2023/02/04 02:36:53;;;;;;;3.00;1.25;;;15.90;62.90;;;;;;5032156;28;20030;-74
2023/02/04 02:39:19;;;;;;;3.05;1.20;;;15.90;62.80;;;;;;5032203;28;20028;-74
2023/02/04 02:41:45;;;;;;;3.17;1.15;;;15.90;62.80;;;;;;5032168;28;20022;-74
2023/02/04 02:44:13;;;;;;;3.17;1.20;;;15.90;62.80;;;;;;5032043;28;20018;-74
2023/02/04 02:46:39;;;;;;;2.30;1.20;;;15.90;62.80;;;;;;5032366;28;20479;-74
2023/02/04 02:49:05;;;;;;;2.55;1.17;;;15.90;62.80;;;;;;5032020;28;20275;-74
2023/02/04 02:51:31;;;;;;;3.65;1.48;;;15.90;62.80;;;;;;5032314;28;20063;-74
2023/02/04 02:53:57;;;;;;;2.17;1.15;;;15.90;62.80;;;;;;5032055;28;20021;-74
2023/02/04 02:56:23;;;;;;;2.38;1.30;;;15.90;62.80;;;;;;5035879;28;20499;-74
2023/02/04 02:58:48;;;;;;;2.30;1.05;;;15.90;62.80;;;;;;5018376;28;20057;-74
2023/02/04 03:01:14;;;;;;;2.65;1.30;;;15.90;62.80;;;;;;5035970;28;20080;-74
2023/02/04 03:03:48;;;;;;;3.30;1.40;;;15.90;62.80;;;;;;5035722;28;20056;-74
2023/02/04 03:06:19;;;;;;;3.08;1.35;;;15.90;62.80;;;;;;5019103;28;20045;-75
2023/02/04 03:08:46;;;;;;;3.78;1.15;;;15.90;62.80;;;;;;5035994;28;20030;-74
2023/02/04 03:11:12;;;;;;;2.35;0.90;;;15.90;62.80;;;;;;5035749;28;20030;-74
2023/02/04 03:13:38;;;;;;;2.70;1.25;;;15.90;62.80;;;;;;5035827;28;20080;-74
2023/02/04 03:16:06;;;;;;;4.85;1.23;;;15.90;62.80;;;;;;5035751;28;20017;-74
2023/02/04 03:18:33;;;;;;;3.47;1.20;;;15.90;62.80;;;;;;5035684;28;20091;-74
2023/02/04 03:20:59;;;;;;;2.78;1.45;;;15.90;62.80;;;;;;5035662;28;20018;-75
2023/02/04 03:23:26;;;;;;;3.13;0.82;;;15.90;62.80;;;;;;5035530;28;20120;-74
2023/02/04 03:25:51;;;;;;;2.45;1.23;;;15.90;62.80;;;;;;5035555;28;20468;-74
2023/02/04 03:28:17;;;;;;;2.45;0.95;;;15.90;62.70;;;;;;5035580;28;20021;-75
2023/02/04 03:30:43;;;;;;;3.63;1.23;;;15.90;62.80;;;;;;5035396;28;20026;-74
2023/02/04 03:33:09;;;;;;;1.90;0.93;;;15.90;63.40;;;;;;5035365;28;20021;-75
2023/02/04 03:35:35;;;;;;;4.10;1.10;;;15.90;62.80;;;;;;5035346;28;20494;-75
2023/02/04 03:38:00;;;;;;;3.67;1.25;;;15.90;62.80;;;;;;5035303;28;20018;-74
2023/02/04 03:40:26;;;;;;;1.00;0.80;;;15.90;62.80;;;;;;5035232;28;20069;-74
2023/02/04 03:42:52;;;;;;;4.28;1.23;;;15.90;63.40;;;;;;5035227;28;20540;-75
2023/02/04 03:45:17;;;;;;;4.15;1.23;;;15.90;62.80;;;;;;5035122;28;20029;-74
2023/02/04 03:47:43;;;;;;;1.67;1.05;;;15.90;62.70;;;;;;5035428;28;20460;-74
2023/02/04 03:50:11;;;;;;;2.78;1.20;;;15.90;62.80;;;;;;5017315;28;20137;-75
2023/02/04 03:52:36;;;;;;;1.92;0.90;;;15.90;62.80;;;;;;5017812;28;20017;-74
2023/02/04 03:55:02;;;;;;;1.95;0.70;;;15.90;62.80;;;;;;5035084;28;20385;-74
2023/02/04 03:57:28;;;;;;;3.00;1.17;;;15.80;62.70;;;;;;5034860;28;20110;-75
2023/02/04 03:59:53;;;;;;;2.13;1.00;;;15.90;62.70;;;;;;5034866;28;20476;-75
2023/02/04 04:02:19;;;;;;;1.73;0.85;;;15.80;62.70;;;;;;5034521;28;20027;-74
2023/02/04 04:04:44;;;;;;;2.58;1.15;;;15.80;62.60;;;;;;5034918;28;20113;-75
2023/02/04 04:07:10;;;;;;;1.60;1.00;;;15.80;62.70;;;;;;5034751;28;20030;-74
2023/02/04 04:09:35;;;;;;;2.08;0.85;;;15.80;62.60;;;;;;5034629;28;20033;-74
2023/02/04 04:12:02;;;;;;;1.65;0.80;;;15.80;62.60;;;;;;5034720;28;20076;-74
2023/02/04 04:14:28;;;;;;;3.20;1.20;;;15.80;62.70;;;;;;5034683;28;20104;-74
2023/02/04 04:16:54;;;;;;;2.63;0.82;;;15.80;62.60;;;;;;5034674;28;20108;-75
2023/02/04 04:19:19;;;;;;;1.58;0.95;;;15.80;62.60;;;;;;5016962;28;20377;-74
2023/02/04 04:21:45;;;;;;;2.50;1.00;;;15.80;62.60;;;;;;5034547;28;20029;-74
2023/02/04 04:24:10;;;;;;;2.83;1.05;;;15.80;62.60;;;;;;5034603;28;20105;-75
2023/02/04 04:26:36;;;;;;;2.55;0.98;;;15.80;62.60;;;;;;5034451;28;20135;-74
2023/02/04 04:29:01;;;;;;;1.80;1.08;;;15.80;62.60;;;;;;5016734;28;20064;-75
2023/02/04 04:31:27;;;;;;;1.40;0.70;;;15.80;62.60;;;;;;5034365;28;20399;-75
2023/02/04 04:33:52;;;;;;;1.88;1.05;;;15.80;62.60;;;;;;5034378;28;20029;-75
2023/02/04 04:36:18;;;;;;;2.38;0.90;;;15.80;62.60;;;;;;5034333;28;20026;-74
2023/02/04 04:38:44;;;;;;;2.00;1.20;;;15.80;62.60;;;;;;5034323;28;20480;-75
2023/02/04 04:41:09;;;;;;;2.95;0.82;;;15.80;62.60;;;;;;5034307;28;20032;-75
2023/02/04 04:43:35;;;;;;;1.77;0.90;;;15.80;62.60;;;;;;5034082;28;20108;-75
2023/02/04 04:46:00;;;;;;;0.98;0.80;;;15.80;62.60;;;;;;5034163;28;20026;-74
2023/02/04 04:48:26;;;;;;;1.63;0.90;;;15.80;62.60;;;;;;5034226;28;20026;-75
2023/02/04 04:50:52;;;;;;;1.73;0.90;;;15.80;62.60;;;;;;5034286;28;20124;-75
2023/02/04 04:53:18;;;;;;;2.15;0.93;;;15.80;62.60;;;;;;5034234;28;20472;-75
2023/02/04 04:55:44;;;;;;;1.90;1.10;;;15.80;62.60;;;;;;5033869;28;20037;-74
2023/02/04 04:58:10;;;;;;;2.08;0.65;;;15.70;62.50;;;;;;5034234;28;20071;-74
2023/02/04 05:00:36;;;;;;;1.92;0.82;;;15.80;62.60;;;;;;5033754;28;20434;-74
2023/02/04 05:03:02;;;;;;;2.47;1.05;;;15.80;62.60;;;;;;5033427;28;20573;-75
2023/02/04 05:05:28;;;;;;;2.63;1.45;;;15.80;62.60;;;;;;5033715;28;20025;-74
2023/02/04 05:07:53;;;;;;;2.20;0.75;;;15.80;62.60;;;;;;5033614;28;20022;-74
2023/02/04 05:10:19;;;;;;;2.15;0.98;;;15.80;62.60;;;;;;5033574;28;20044;-74
2023/02/04 05:12:45;;;;;;;2.60;0.93;;;15.80;62.60;;;;;;5033813;28;20466;-75
2023/02/04 05:15:11;;;;;;;1.73;0.80;;;15.70;62.50;;;;;;5033864;28;20025;-75
2023/02/04 05:17:37;;;;;;;3.05;1.13;;;15.80;62.60;;;;;;5032867;28;20060;-74
2023/02/04 05:20:03;;;;;;;2.42;0.82;;;15.70;62.50;;;;;;5033495;28;20104;-75
2023/02/04 05:22:28;;;;;;;2.22;0.98;;;15.70;62.50;;;;;;5033466;28;20059;-75
2023/02/04 05:24:54;;;;;;;1.55;0.77;;;15.80;62.60;;;;;;5033310;28;20564;-75
2023/02/04 05:27:20;;;;;;;1.85;0.90;;;15.70;62.50;;;;;;5033318;28;20155;-74
2023/02/04 05:29:45;;;;;;;1.75;0.90;;;15.70;62.60;;;;;;5033088;28;20041;-75
2023/02/04 05:32:11;;;;;;;2.53;1.20;;;15.70;62.60;;;;;;5033239;28;20044;-75
2023/02/04 05:34:36;;;;;;;2.03;0.82;;;15.70;62.60;;;;;;5033214;28;20051;-74
2023/02/04 05:37:02;;;;;;;2.42;0.80;;;15.70;62.50;;;;;;5033114;28;20025;-74
2023/02/04 05:39:27;;;;;;;1.70;0.80;;;15.70;62.50;;;;;;5033149;28;20034;-74
2023/02/04 05:41:53;;;;;;;2.55;1.10;;;15.70;62.60;;;;;;5032967;28;20055;-74
2023/02/04 05:44:19;;;;;;;1.85;1.00;;;15.70;62.60;;;;;;5032997;28;20100;-75
2023/02/04 05:46:44;;;;;;;2.67;1.25;;;15.70;62.50;;;;;;5032910;28;20018;-75
2023/02/04 05:49:10;;;;;;;3.58;1.02;;;15.70;62.50;;;;;;5032827;28;20120;-74
2023/02/04 05:51:36;;;;;;;2.10;0.98;;;15.70;62.60;;;;;;5032886;28;20400;-74
2023/02/04 05:54:02;;;;;;;1.95;0.82;;;15.70;62.60;;;;;;5032870;28;20096;-74
2023/02/04 05:56:29;;;;;;;1.85;1.00;;;15.70;62.60;;;;;;5032821;28;20018;-74
2023/02/04 05:58:54;;;;;;;3.65;1.20;;;15.70;62.60;;;;;;5032631;28;20020;-74
2023/02/04 06:01:20;;;;;;;3.05;0.88;;;15.70;62.60;;;;;;5032732;28;20026;-74
2023/02/04 06:03:45;;;;;;;2.47;0.88;;;15.70;62.60;;;;;;5032466;28;20051;-74
2023/02/04 06:06:11;;;;;;;2.70;0.95;;;15.70;62.60;;;;;;5032700;28;20026;-74
2023/02/04 06:08:37;;;;;;;1.80;1.10;;;15.70;62.50;;;;;;5032526;28;20033;-74
2023/02/04 06:11:02;;;;;;;2.80;0.98;;;15.70;62.60;;;;;;5032515;28;20080;-74
2023/02/04 06:13:28;;;;;;;2.22;0.77;;;15.70;62.60;;;;;;5032536;28;20022;-74
2023/02/04 06:15:53;;;;;;;2.72;1.00;;;15.70;63.20;;;;;;5015758;28;20022;-74
2023/02/04 06:18:19;;;;;;;2.03;1.05;;;15.70;62.60;;;;;;5032743;28;20488;-75
2023/02/04 06:20:45;;;;;;;2.47;1.00;;;15.70;62.60;;;;;;5032376;28;20490;-75
2023/02/04 06:23:11;;;;;;;1.92;0.90;;;15.70;62.60;;;;;;5032562;28;20491;-72
2023/02/04 06:25:37;;;;;;;2.58;1.15;;;15.70;62.60;;;;;;5032531;28;20056;-73
2023/02/04 06:28:03;;;;;;;1.73;1.00;;;15.70;70.70;;;;;;5032238;28;20032;-73
2023/02/04 06:30:29;;;;;;;1.65;0.90;;;15.70;62.60;;;;;;5031508;28;20022;-74
2023/02/04 06:32:55;;;;;;;2.25;1.05;;;15.70;62.60;;;;;;5032392;28;20031;-75
2023/02/04 06:35:21;;;;;;;1.45;0.80;;;15.70;62.60;;;;;;5032436;28;20033;-75
2023/02/04 06:37:47;;;;;;;3.33;1.60;;;15.70;62.60;;;;;;5032441;28;20024;-74
2023/02/04 06:40:13;;;;;;;3.13;1.25;;;15.70;62.70;;;;;;5032290;28;20060;-75
2023/02/04 06:42:39;;;;;;;2.20;0.88;;;15.70;62.70;;;;;;5032349;28;20021;-75
2023/02/04 06:45:06;;;;;;;4.15;1.38;;;15.70;63.40;;;;;;5032311;28;20392;-75
2023/02/04 06:47:32;;;;;;;2.20;0.77;;;15.70;62.80;;;;;;5014671;28;20033;-74
2023/02/04 06:49:58;;;;;;;2.65;1.10;;;15.70;62.80;;;;;;5032235;28;20038;-75
2023/02/04 06:52:24;;;;;;;4.18;1.23;;;15.70;63.00;;;;;;5032342;28;20040;-75
2023/02/04 06:54:50;;;;;;;4.18;1.15;;;15.70;62.90;;;;;;5032010;28;20104;-75
2023/02/04 06:57:16;;;;;;;4.85;1.17;;;15.70;62.90;;;;;;5031847;28;20100;-75
2023/02/04 06:59:42;;;;;;;2.70;1.10;;;15.70;62.90;;;;;;5032280;28;20105;-75
2023/02/04 07:02:11;;;;;;;6.45;1.35;;;15.70;63.00;;;;;;5031820;28;20026;-75
2023/02/04 07:04:37;;;;;;;3.13;0.95;;;15.70;62.90;;;;;;5031988;28;20033;-75
2023/02/04 07:07:03;;;;;;;3.33;1.17;;;15.60;62.90;;;;;;5032200;28;20030;-75
2023/02/04 07:09:29;;;;;;;3.20;1.33;;;15.70;62.90;;;;;;5032177;28;20057;-75
2023/02/04 07:11:55;;;;;;;1.98;0.68;;;15.70;63.00;;;;;;5031845;28;20392;-76
2023/02/04 07:14:20;;;;;;;4.57;1.27;;;15.70;63.00;;;;;;5031853;28;20037;-75
2023/02/04 07:16:46;;;;;;;1.60;0.93;;;15.70;62.90;;;;;;5032216;28;20014;-75
2023/02/04 07:19:12;;;;;;;4.80;1.10;;;15.70;63.00;;;;;;5031797;28;20021;-75
2023/02/04 07:21:38;;;;;;;2.60;1.17;;;15.70;62.90;;;;;;5032141;28;20080;-75
2023/02/04 07:24:04;;;;;;;2.55;1.10;;;15.70;62.90;;;;;;5031793;28;20025;-75
2023/02/04 07:26:29;;;;;;;4.55;1.75;;;15.70;62.90;;;;;;5031963;28;20034;-75
2023/02/04 07:28:55;;;;;;;3.22;1.17;;;15.70;62.90;;;;;;5031722;28;20037;-75
2023/02/04 07:31:21;;;;;;;4.10;1.25;;;15.70;62.90;;;;;;5031703;28;20029;-75
2023/02/04 07:33:46;;;;;;;2.25;0.98;;;15.70;63.00;;;;;;5031779;28;20495;-75
2023/02/04 07:36:12;;;;;;;3.47;1.40;;;15.70;62.90;;;;;;5031606;28;20032;-75
2023/02/04 07:38:37;;;;;;;2.50;1.00;;;15.70;62.90;;;;;;5031772;28;20060;-75
2023/02/04 07:41:03;;;;;;;3.05;1.13;;;15.70;62.90;;;;;;5035432;28;20392;-74
2023/02/04 07:43:29;;;;;;;4.13;1.30;;;15.70;62.90;;;;;;5035394;28;20026;-76
2023/02/04 07:45:54;;;;;;;2.78;1.30;;;15.70;62.90;;;;;;5035247;28;20032;-76
2023/02/04 07:48:20;;;;;;;4.05;1.38;;;15.80;63.00;;;;;;5035243;28;20025;-76
2023/02/04 07:50:45;;;;;;;2.75;1.30;;;15.70;62.90;;;;;;5035189;28;20099;-76
2023/02/04 07:53:11;;;;;;;2.58;1.10;;;15.80;63.00;;;;;;5017325;28;20419;-77
2023/02/04 07:55:37;;;;;;;4.53;1.40;;;15.70;63.00;;;;;;5035446;28;20064;-77
2023/02/04 07:58:03;;;;;;;5.40;1.35;;;15.80;63.00;;;;;;5035127;28;20439;-77
2023/02/04 08:00:29;;;;;;;3.83;1.35;;;15.80;63.00;;;;;;5035160;28;20017;-75
2023/02/04 08:02:55;;;;;;;3.35;1.23;;;15.70;62.90;;;;;;5034849;28;20057;-76
2023/02/04 08:05:20;;;;;;;2.50;1.17;;;15.70;62.90;;;;;;5034894;28;20017;-76
2023/02/04 08:07:46;;;;;;;3.40;1.20;;;15.70;62.90;;;;;;5034899;28;20100;-75
2023/02/04 08:10:12;;;;;;;5.38;1.27;;;15.70;62.90;;;;;;5034713;28;20037;-74
2023/02/04 08:12:37;;;;;;;4.78;1.48;;;15.80;63.00;;;;;;5034583;28;20049;-74
2023/02/04 08:15:06;;;;;;;4.28;1.55;;;15.80;63.00;;;;;;5034731;28;20022;-74
2023/02/04 08:17:32;;;;;;;3.60;1.30;;;15.80;63.00;;;;;;5034776;28;20434;-75
2023/02/04 08:19:58;;;;;;;3.33;1.42;;;15.80;63.00;;;;;;5034992;28;20032;-76
2023/02/04 08:22:24;;;;;;;3.58;1.40;;;15.80;63.00;;;;;;5034533;28;20392;-77
2023/02/04 08:24:49;;;;;;;4.38;1.30;;;15.80;63.00;;;;;;5034560;28;20043;-76
2023/02/04 08:27:15;;;;;;;4.45;1.35;;;15.80;63.00;;;;;;5034442;28;20021;-76
2023/02/04 08:29:41;;;;;;;2.78;1.15;;;15.80;63.80;;;;;;5034667;28;20033;-76
2023/02/04 08:32:09;;;;;;;3.47;1.20;;;15.70;63.00;;;;;;5034715;28;20048;-76
2023/02/04 08:34:35;;;;;;;6.57;1.27;;;15.80;63.10;;;;;;5034440;28;20018;-77
2023/02/04 08:37:00;;;;;;;6.75;1.33;;;15.80;63.10;;;;;;5034418;28;20511;-77
2023/02/04 08:39:26;;;;;;;3.17;1.23;;;15.80;63.10;;;;;;5034318;28;20029;-76
2023/02/04 08:41:52;;;;;;;8.57;1.55;;;15.70;63.00;;;;;;5034385;28;20072;-76
2023/02/04 08:44:17;;;;;;;3.35;1.35;;;15.80;63.10;;;;;;5016500;28;20029;-77
2023/02/04 08:46:43;;;;;;;4.85;1.83;;;15.80;63.10;;;;;;5034375;28;20021;-77
2023/02/04 08:49:09;;;;;;;3.30;1.00;;;15.80;63.00;;;;;;5034071;28;20026;-76
2023/02/04 08:51:34;;;;;;;2.97;1.17;;;15.80;63.00;;;;;;5033811;28;20026;-77
2023/02/04 08:54:00;;;;;;;4.03;1.38;;;15.80;63.00;;;;;;5033425;28;20049;-76
2023/02/04 08:56:25;;;;;;;3.47;1.15;;;15.80;63.10;;;;;;5033956;28;20026;-75
2023/02/04 08:58:51;;;;;;;5.43;1.60;;;15.80;63.10;;;;;;5033873;28;20029;-75
2023/02/04 09:01:18;;;;;;;2.88;1.10;;;15.80;63.10;;;;;;5033869;28;20060;-76
2023/02/04 09:03:43;;;;;;;3.40;1.55;;;15.80;63.20;;;;;;5033329;28;20381;-73
2023/02/04 09:06:10;;;;;;;4.32;1.38;;;15.80;63.20;;;;;;5033562;28;20140;-75
2023/02/04 09:08:35;;;;;;;3.47;1.42;;;15.80;63.10;;;;;;5033560;28;20029;-74
2023/02/04 09:11:01;;;;;;;3.75;1.30;;;15.80;63.10;;;;;;5033680;28;20026;-74
2023/02/04 09:13:27;;;;;;;7.35;2.17;;;15.80;63.10;;;;;;5033556;28;20448;-76
2023/02/04 09:15:52;;;;;;;5.38;2.30;;;15.80;63.00;;;;;;5035496;28;20026;-75
2023/02/04 09:18:20;;;;;;;6.88;2.25;;;15.80;63.10;;;;;;5036550;28;20396;-74
2023/02/04 09:20:48;;;;;;;10.38;3.53;;;15.80;63.10;;;;;;5016493;28;20361;-75
2023/02/04 09:23:14;;;;;;;8.30;2.53;;;15.80;63.10;;;;;;5033411;28;20394;-74
2023/02/04 09:25:41;;;;;;;9.60;2.72;;;15.80;63.10;;;;;;5033329;28;20044;-76
2023/02/04 09:28:11;;;;;;;5.43;2.40;;;15.80;63.20;;;;;;5033270;28;20092;-74
2023/02/04 09:30:41;;;;;;;8.57;2.00;;;15.80;63.90;;;;;;5033232;28;20466;-74
2023/02/04 09:33:07;;;;;;;;;;;15.80;63.20;;;;;;5033643;28;20096;-75
2023/02/04 09:35:33;;;;;;;6.88;2.10;;;15.80;63.20;;;;;;5033153;28;19947;-77
2023/02/04 09:37:59;;;;;;;6.38;1.80;;;15.80;63.30;;;;;;5033158;28;20053;-77
2023/02/04 09:40:27;;;;;;;6.20;1.80;;;15.80;63.30;;;;;;5033066;28;20022;-77
2023/02/04 09:42:54;;;;;;;6.63;2.35;;;15.80;63.30;;;;;;5033021;28;20040;-77
2023/02/04 09:45:23;;;;;;;7.03;2.10;;;15.90;63.40;;;;;;5032971;28;20018;-74
2023/02/04 09:47:50;;;;;;;8.25;1.98;;;15.90;63.40;;;;;;5032865;28;20022;-75
2023/02/04 09:50:18;;;;;;;5.78;2.08;;;15.90;63.50;;;;;;5032860;28;20167;-74
2023/02/04 09:52:48;;;;;;;6.20;2.25;;;15.90;63.50;;;;;;5032861;28;20024;-75
2023/02/04 09:55:16;;;;;;;4.47;2.10;;;15.90;63.50;;;;;;5032895;28;20519;-75
2023/02/04 09:57:42;;;;;;;6.65;2.00;;;15.90;63.50;;;;;;5032954;28;20118;-75
2023/02/04 10:00:16;;;;;;;7.03;2.25;;;15.90;63.50;;;;;;5032786;28;20049;-75
2023/02/04 10:02:42;;;;;;;5.93;1.92;;;15.90;63.50;;;;;;5032392;28;20042;-76
2023/02/04 10:05:23;;;;;;;5.53;2.20;;;15.90;63.70;;;;;;5032637;28;20025;-75
2023/02/04 10:07:49;;;;;;;7.50;2.83;;;15.90;63.60;;;;;;5032395;28;20033;-75
2023/02/04 10:10:21;;;;;;;4.88;2.38;;;15.10;62.60;;;;;;5032430;28;20092;-75
2023/02/04 10:12:48;;;;;;;3.85;2.13;;;15.90;63.60;;;;;;5032604;28;20021;-75
2023/02/04 10:15:18;;;;;;;8.77;3.65;;;15.90;63.60;;;;;;5032795;28;20400;-76
2023/02/04 10:17:50;;;;;;;10.20;4.45;;;16.00;63.60;;;;;;5032426;28;20476;-76
2023/02/04 10:20:19;;;;;;;10.65;4.88;;;16.00;63.50;;;;;;5032718;28;20029;-76
2023/02/04 10:22:46;;;;;;;10.15;4.40;;;15.90;63.40;;;;;;5032254;28;20033;-76
2023/02/04 10:25:17;;;;;;;12.43;4.70;;;16.00;63.40;;;;;;5032343;28;20032;-75
2023/02/04 10:27:54;;;;;;;9.63;4.20;;;16.00;63.40;;;;;;5032486;28;20476;-75
2023/02/04 10:30:34;;;;;;;11.38;4.55;;;16.00;63.50;;;;;;5032397;28;20123;-75
2023/02/04 10:33:26;;;;;;;11.20;4.00;;;16.00;63.50;;;;;;5032322;28;20022;-76
2023/02/04 10:35:54;;;;;;;11.45;4.60;;;16.00;63.50;;;;;;5032272;28;20049;-74
2023/02/04 10:38:20;;;;;;;10.05;4.45;;;16.00;63.50;;;;;;5032252;28;20022;-75
2023/02/04 10:40:46;;;;;;;8.30;3.30;;;16.00;63.60;;;;;;5032525;28;20396;-75
2023/02/04 10:43:19;;;;;;;7.50;3.67;;;16.00;63.50;;;;;;5032446;28;20009;-76
2023/02/04 10:45:47;;;;;;;9.05;3.83;;;16.00;63.50;;;;;;5015518;28;20104;-76
2023/02/04 10:48:18;;;;;;;8.35;3.80;;;16.00;63.50;;;;;;5032041;28;20013;-76
2023/02/04 10:50:45;;;;;;;;;;;16.00;63.50;;;;;;5032833;28;20144;-75
2023/02/04 10:55:59;;;;;;;8.55;2.97;;;16.00;64.20;;;;;;5032128;28;20029;-76
2023/02/04 10:58:27;;;;;;;7.80;3.72;;;16.00;63.70;;;;;;5032324;28;20480;-77
2023/02/04 11:00:54;;;;;;;11.93;4.72;;;16.00;63.80;;;;;;5031969;28;20017;-75
2023/02/04 11:03:24;;;;;;;10.25;4.20;;;16.00;63.80;;;;;;5031825;28;20443;-76
2023/02/04 11:05:52;;;;;;;8.45;3.53;;;16.00;64.00;;;;;;5032287;28;20390;-80
2023/02/04 11:08:44;;;;;;;6.25;3.05;;;16.00;64.00;;;;;;5032159;28;20025;-79
2023/02/04 11:11:18;;;;;;;9.23;3.55;;;16.10;64.10;;;;;;5029069;28;20404;-76
2023/02/04 11:13:57;;;;;;;9.98;3.75;;;16.00;64.00;;;;;;5032013;28;20101;-76
2023/02/04 11:16:26;;;;;;;6.45;3.08;;;16.10;64.10;;;;;;5034185;28;20021;-75
2023/02/04 11:19:00;;;;;;;7.55;3.70;;;16.10;64.00;;;;;;5035991;28;20032;-76
2023/02/04 11:21:31;;;;;;;7.97;3.08;;;16.10;64.10;;;;;;5035727;28;20029;-77
2023/02/04 11:24:13;;;;;;;7.03;3.28;;;16.10;64.10;;;;;;5036028;28;20026;-77
2023/02/04 11:26:46;;;;;;;7.60;3.13;;;16.10;64.10;;;;;;5035751;28;20568;-77
2023/02/04 11:29:16;;;;;;;6.88;3.40;;;16.10;64.20;;;;;;5035652;28;20026;-76
2023/02/04 11:31:56;;;;;;;9.67;3.97;;;16.10;64.00;;;;;;5035850;28;20037;-75
2023/02/04 11:34:22;;;;;;;9.73;3.75;;;16.10;64.00;;;;;;5035727;28;20026;-74
2023/02/04 11:37:00;;;;;;;9.55;4.35;;;16.10;63.90;;;;;;5035679;28;20518;-75
2023/02/04 11:39:28;;;;;;;10.40;4.13;;;16.20;63.90;;;;;;5035365;28;20033;-75
2023/02/04 11:41:54;;;;;;;13.18;4.57;;;16.20;64.60;;;;;;5035374;28;20034;-76
2023/02/04 11:44:21;;;;;;;10.40;3.70;;;16.20;63.80;;;;;;5035179;28;20554;-75
2023/02/04 11:46:54;;;;;;;13.43;3.83;;;16.20;63.80;;;;;;5035467;28;20095;-76
2023/02/04 11:49:22;;;;;;;9.77;3.95;;;16.20;63.80;;;;;;5035279;28;20034;-77
2023/02/04 11:51:48;;;;;;;7.72;3.00;;;16.20;63.80;;;;;;5035083;28;20476;-76
2023/02/04 11:54:18;;;;;;;7.82;3.70;;;16.20;63.80;;;;;;5035012;28;20503;-74
2023/02/04 11:56:45;;;;;;;7.13;3.30;;;16.20;63.80;;;;;;5035305;28;20025;-75
2023/02/04 11:59:13;;;;;;;8.85;3.30;;;16.20;63.80;;;;;;5035151;28;20013;-76
2023/02/04 12:01:40;;;;;;;7.82;3.03;;;16.50;71.90;;;;;;5034801;28;20032;-73
2023/02/04 12:04:20;;;;;;;12.20;3.70;;;16.20;64.60;;;;;;5034608;28;20041;-75
2023/02/04 12:07:00;;;;;;;8.77;3.30;;;16.20;63.90;;;;;;5034833;28;20124;-74
2023/02/04 12:09:30;;;;;;;9.07;3.20;;;16.20;63.90;;;;;;5034704;28;20033;-76
2023/02/04 12:11:59;;;;;;;6.53;3.17;;;16.20;63.90;;;;;;5034763;28;20038;-73
2023/02/04 12:14:33;;;;;;;9.32;3.20;;;16.20;64.00;;;;;;5034878;28;20026;-75
2023/02/04 12:17:00;;;;;;;9.20;3.58;;;16.30;64.00;;;;;;5034770;28;20037;-73
2023/02/04 12:19:26;;;;;;;8.10;2.95;;;16.30;64.00;;;;;;5034844;28;20395;-76
2023/02/04 12:21:53;;;;;;;6.82;2.60;;;16.30;64.00;;;;;;5034888;28;20014;-76
2023/02/04 12:24:20;;;;;;;6.15;2.72;;;16.30;64.00;;;;;;5034538;28;20503;-76
2023/02/04 12:26:46;;;;;;;6.10;2.55;;;16.30;64.00;;;;;;5034009;28;20037;-77
2023/02/04 12:29:12;;;;;;;7.93;3.03;;;16.30;64.00;;;;;;5033998;28;20525;-77
2023/02/04 12:31:38;;;;;;;6.25;2.85;;;16.30;63.90;;;;;;5034661;28;20053;-77
2023/02/04 12:34:04;;;;;;;7.43;2.50;;;16.30;64.00;;;;;;5034341;28;20037;-77
2023/02/04 12:36:30;;;;;;;5.57;2.20;;;16.30;64.00;;;;;;5034359;28;20101;-77
2023/02/04 12:38:59;;;;;;;6.22;2.15;;;16.30;64.00;;;;;;5034256;28;20091;-75
2023/02/04 12:41:25;;;;;;;5.97;2.22;;;16.30;64.00;;;;;;5034544;28;20013;-75
2023/02/04 12:43:53;;;;;;;8.55;2.97;;;16.30;64.00;;;;;;5034480;28;20070;-76
2023/02/04 12:46:20;;;;;;;3.83;1.83;;;16.30;64.00;;;;;;5034073;28;20021;-74
2023/02/04 12:48:46;;;;;;;5.45;2.30;;;16.30;64.00;;;;;;5034350;28;20087;-75